Terminal Aerodrome Forecast
Issued by NWS

Home | Current Version | Previous Version | Text Only | Print | Product List | Glossary On
Versions: 1 2 3 4 5 6 7 8 9 10 11 12 13 14 15 16 17 18 19
863
FTUS43 KGRR 240534
TAFMKG
TAF
KMKG 240534Z 2406/2506 06004KT P6SM VCTS OVC070CB
     FM241700 03011KT 6SM BR VCTS OVC025CB
     FM250300 04008KT 6SM BR OVC025=

USA.gov is the U.S. government's official web portal to all federal, state and local government web resources and services.